createdAt,value
2022-10-31T00:00:25.194Z,99.99
2022-10-31T00:01:25.129Z,99.99
2022-10-31T00:02:25.159Z,99.99
2022-10-31T00:03:25.121Z,99.99
2022-10-31T00:04:25.095Z,99.99
2022-10-31T00:05:25.100Z,99.99
2022-10-31T00:06:25.073Z,99.99
2022-10-31T00:07:25.072Z,99.99
2022-10-31T00:08:25.053Z,99.99
2022-10-31T00:09:25.059Z,99.99
2022-10-31T00:10:25.035Z,99.99
2022-10-31T00:11:25.012Z,99.99
2022-10-31T00:12:25.006Z,99.99
2022-10-31T00:13:24.998Z,99.99
2022-10-31T00:14:24.985Z,99.99
2022-10-31T00:15:25.051Z,99.99
2022-10-31T00:16:25.008Z,99.99
2022-10-31T00:17:24.948Z,99.99
2022-10-31T00:18:24.966Z,99.99
2022-10-31T00:19:24.931Z,99.99
2022-10-31T00:20:24.926Z,99.99
2022-10-31T00:21:24.913Z,99.99
2022-10-31T00:22:24.893Z,99.99
2022-10-31T00:23:24.882Z,99.99
2022-10-31T00:24:24.877Z,99.99
2022-10-31T00:25:24.878Z,99.99
2022-10-31T00:26:24.847Z,99.99
2022-10-31T00:27:24.843Z,99.99
2022-10-31T00:28:24.830Z,99.99
2022-10-31T00:29:24.810Z,99.99
2022-10-31T00:30:24.801Z,99.99
2022-10-31T00:31:24.817Z,99.99
2022-10-31T00:32:24.784Z,99.99
2022-10-31T00:33:24.780Z,99.99
2022-10-31T00:34:24.765Z,99.99
2022-10-31T00:35:24.743Z,99.99
2022-10-31T00:36:24.753Z,99.99
2022-10-31T00:37:24.744Z,99.99
2022-10-31T00:38:24.710Z,99.99
2022-10-31T00:39:24.715Z,99.99
2022-10-31T00:40:24.702Z,99.99
2022-10-31T00:41:24.703Z,99.99
2022-10-31T00:42:24.675Z,99.99
2022-10-31T00:43:24.675Z,99.99
2022-10-31T00:44:24.653Z,99.99
2022-10-31T00:45:24.663Z,99.99
2022-10-31T00:46:24.857Z,99.99
2022-10-31T00:47:24.646Z,99.99
2022-10-31T00:48:24.604Z,99.99
2022-10-31T00:49:24.623Z,99.99
2022-10-31T00:50:24.593Z,99.99
2022-10-31T00:51:24.585Z,99.99
2022-10-31T00:52:24.561Z,99.99
2022-10-31T00:53:24.560Z,99.99
2022-10-31T00:54:24.547Z,99.99
2022-10-31T00:55:24.534Z,99.99
2022-10-31T00:56:24.519Z,99.99
2022-10-31T00:57:24.523Z,99.99
2022-10-31T00:58:24.517Z,99.99
2022-10-31T00:59:24.506Z,99.99
2022-10-31T01:00:24.490Z,99.99
2022-10-31T01:01:24.548Z,99.99
2022-10-31T01:02:24.693Z,99.99
2022-10-31T01:03:24.471Z,99.99
2022-10-31T01:04:24.449Z,99.99
2022-10-31T01:05:24.422Z,99.99
2022-10-31T01:06:24.427Z,99.99
2022-10-31T01:07:24.404Z,99.99
2022-10-31T01:08:24.408Z,99.99
2022-10-31T01:09:24.389Z,99.99
2022-10-31T01:10:24.379Z,99.99
2022-10-31T01:11:24.387Z,99.99
2022-10-31T01:12:24.342Z,99.99
2022-10-31T01:13:24.336Z,99.99
2022-10-31T01:14:24.314Z,99.99
2022-10-31T01:15:24.331Z,99.99
2022-10-31T01:16:24.312Z,99.99
2022-10-31T01:17:24.354Z,99.99
2022-10-31T01:18:24.294Z,99.99
2022-10-31T01:19:24.276Z,99.99
2022-10-31T01:20:24.268Z,99.99
2022-10-31T01:21:24.265Z,99.99
2022-10-31T01:22:24.248Z,99.99
2022-10-31T01:23:24.224Z,99.99
2022-10-31T01:24:24.205Z,99.99
2022-10-31T01:25:24.208Z,99.99
2022-10-31T01:26:24.208Z,99.99
2022-10-31T01:27:24.194Z,99.99
2022-10-31T01:28:27.193Z,99.99
2022-10-31T01:29:24.177Z,99.99
2022-10-31T01:30:24.157Z,99.99
2022-10-31T01:31:24.146Z,99.99
2022-10-31T01:32:24.134Z,99.99
2022-10-31T01:33:24.126Z,99.99
2022-10-31T01:34:24.102Z,99.99
2022-10-31T01:35:24.093Z,99.99
2022-10-31T01:36:24.074Z,99.99
2022-10-31T01:37:24.106Z,99.99
2022-10-31T01:38:24.061Z,99.99
2022-10-31T01:39:24.062Z,99.99
2022-10-31T01:40:24.043Z,99.99
2022-10-31T01:41:24.038Z,99.99
2022-10-31T01:42:24.023Z,99.99
2022-10-31T01:43:24.017Z,99.99
2022-10-31T01:44:23.993Z,99.99
2022-10-31T01:45:23.995Z,99.99
2022-10-31T01:46:23.980Z,99.99
2022-10-31T01:47:23.968Z,99.99
2022-10-31T01:48:23.969Z,99.99
2022-10-31T01:49:23.948Z,99.99
2022-10-31T01:50:23.948Z,99.99
2022-10-31T01:51:23.926Z,99.99
2022-10-31T01:52:23.916Z,99.99
2022-10-31T01:53:26.820Z,99.99
2022-10-31T01:54:23.878Z,99.99
2022-10-31T01:55:26.410Z,99.99
2022-10-31T01:56:24.854Z,99.99
2022-10-31T01:57:23.866Z,99.99
2022-10-31T01:58:23.859Z,99.99
2022-10-31T01:59:23.836Z,99.99
2022-10-31T02:00:23.841Z,99.99
2022-10-31T02:01:23.920Z,99.99
2022-10-31T02:02:23.943Z,99.99
2022-10-31T02:03:23.778Z,99.99
2022-10-31T02:04:23.781Z,99.99
2022-10-31T02:05:23.773Z,99.99
2022-10-31T02:06:23.756Z,99.99
2022-10-31T02:07:23.749Z,99.99
2022-10-31T02:08:23.728Z,99.99
2022-10-31T02:09:23.721Z,99.99
2022-10-31T02:10:23.717Z,99.99
2022-10-31T02:11:23.703Z,99.99
2022-10-31T02:12:23.708Z,99.99
2022-10-31T02:13:23.692Z,99.99
2022-10-31T02:14:23.667Z,99.99
2022-10-31T02:15:23.659Z,99.99
2022-10-31T02:16:23.648Z,99.99
2022-10-31T02:17:24.577Z,99.99
2022-10-31T02:18:23.648Z,99.99
2022-10-31T02:19:23.616Z,99.99
2022-10-31T02:20:23.603Z,99.99
2022-10-31T02:21:23.578Z,99.99
2022-10-31T02:22:23.575Z,99.99
2022-10-31T02:23:23.561Z,99.99
2022-10-31T02:24:23.562Z,99.99
2022-10-31T02:25:23.577Z,99.99
2022-10-31T02:26:23.558Z,99.99
2022-10-31T02:27:23.540Z,99.99
2022-10-31T02:28:23.509Z,99.99
2022-10-31T02:29:23.496Z,99.99
2022-10-31T02:30:23.498Z,99.99
2022-10-31T02:31:23.490Z,99.99
2022-10-31T02:32:23.491Z,99.99
2022-10-31T02:33:23.462Z,99.99
2022-10-31T02:34:23.434Z,99.99
2022-10-31T02:35:23.440Z,99.99
2022-10-31T02:36:23.420Z,99.99
2022-10-31T02:37:23.416Z,99.99
2022-10-31T02:38:23.403Z,99.99
2022-10-31T02:39:23.388Z,99.99
2022-10-31T02:40:24.326Z,99.99
2022-10-31T02:41:23.360Z,99.99
2022-10-31T02:42:23.367Z,99.99
2022-10-31T02:43:23.349Z,99.99
2022-10-31T02:44:23.349Z,99.99
2022-10-31T02:45:23.326Z,99.99
2022-10-31T02:46:23.338Z,99.99
2022-10-31T02:47:23.313Z,99.99
2022-10-31T02:48:23.299Z,99.99
2022-10-31T02:49:23.490Z,99.99
2022-10-31T02:50:23.265Z,99.99
2022-10-31T02:51:23.261Z,99.99
2022-10-31T02:52:23.251Z,99.99
2022-10-31T02:53:23.246Z,99.99
2022-10-31T02:54:23.256Z,99.99
2022-10-31T02:55:23.214Z,99.99
2022-10-31T02:56:23.208Z,99.99
2022-10-31T02:57:23.203Z,99.99
2022-10-31T02:58:23.189Z,99.99
2022-10-31T02:59:23.179Z,99.99
2022-10-31T03:00:23.131Z,99.99
2022-10-31T03:01:23.266Z,99.99
2022-10-31T03:02:23.330Z,99.99
2022-10-31T03:03:23.138Z,99.99
2022-10-31T03:04:23.136Z,99.99
2022-10-31T03:05:23.113Z,99.99
2022-10-31T03:06:23.095Z,99.99
2022-10-31T03:07:23.079Z,99.99
2022-10-31T03:08:23.085Z,99.99
2022-10-31T03:09:23.052Z,99.99
2022-10-31T03:10:23.068Z,99.99
2022-10-31T03:11:23.049Z,99.99
2022-10-31T03:12:23.042Z,99.99
2022-10-31T03:14:23.018Z,99.99
2022-10-31T03:15:23.003Z,99.99
2022-10-31T03:16:23.005Z,99.99
2022-10-31T03:17:22.977Z,99.99
2022-10-31T03:18:22.961Z,99.99
2022-10-31T03:19:22.973Z,99.99
2022-10-31T03:20:22.959Z,99.99
2022-10-31T03:21:22.941Z,99.99
2022-10-31T03:22:22.923Z,99.99
2022-10-31T03:23:22.921Z,99.99
2022-10-31T03:24:22.904Z,99.99
2022-10-31T03:25:22.900Z,99.99
2022-10-31T03:26:22.887Z,99.99
2022-10-31T03:27:22.867Z,99.99
2022-10-31T03:28:22.860Z,99.99
2022-10-31T03:29:22.850Z,99.99
2022-10-31T03:30:22.841Z,99.99
2022-10-31T03:31:22.832Z,99.99
2022-10-31T03:32:22.828Z,99.99
2022-10-31T03:33:22.797Z,99.99
2022-10-31T03:34:22.784Z,99.99
2022-10-31T03:35:22.780Z,99.99
2022-10-31T03:36:22.771Z,99.99
2022-10-31T03:37:22.753Z,99.99
2022-10-31T03:38:22.768Z,99.99
2022-10-31T03:39:22.731Z,99.99
2022-10-31T03:40:22.732Z,99.99
2022-10-31T03:41:22.706Z,99.99
2022-10-31T03:42:22.708Z,99.99
2022-10-31T03:44:22.685Z,99.99
2022-10-31T03:45:22.682Z,99.99
2022-10-31T03:46:22.663Z,99.99
2022-10-31T03:47:22.640Z,99.99
2022-10-31T03:48:22.646Z,99.99
2022-10-31T03:49:22.636Z,99.99
2022-10-31T03:50:22.799Z,99.99
2022-10-31T03:51:22.610Z,99.99
2022-10-31T03:52:22.590Z,99.99
2022-10-31T03:53:22.582Z,99.99
2022-10-31T03:54:22.574Z,99.99
2022-10-31T03:55:22.568Z,99.99
2022-10-31T03:56:22.539Z,99.99
2022-10-31T03:57:22.545Z,99.99
2022-10-31T03:58:22.528Z,99.99
2022-10-31T03:59:22.512Z,99.99
2022-10-31T04:00:22.523Z,99.99
2022-10-31T04:01:22.584Z,99.99
2022-10-31T04:02:22.638Z,99.99
2022-10-31T04:03:22.482Z,99.99
2022-10-31T04:04:22.467Z,99.99
2022-10-31T04:05:22.452Z,99.99
2022-10-31T04:06:22.429Z,99.99
2022-10-31T04:07:31.201Z,99.99
2022-10-31T04:08:22.417Z,99.99
2022-10-31T04:09:22.425Z,99.99
2022-10-31T04:10:27.335Z,99.99
2022-10-31T04:11:23.405Z,99.99
2022-10-31T04:12:22.382Z,99.99
2022-10-31T04:13:22.424Z,99.99
2022-10-31T04:14:22.359Z,99.99
2022-10-31T04:15:22.354Z,99.99
2022-10-31T04:16:22.351Z,99.99
2022-10-31T04:17:22.317Z,99.99
2022-10-31T04:18:22.323Z,99.99
2022-10-31T04:19:22.306Z,99.99
2022-10-31T04:20:22.299Z,99.99
2022-10-31T04:21:22.397Z,99.99
2022-10-31T04:22:22.278Z,99.99
2022-10-31T04:23:22.254Z,99.99
2022-10-31T04:24:22.256Z,99.99
2022-10-31T04:25:22.251Z,99.99
2022-10-31T04:26:22.229Z,99.99
2022-10-31T04:27:22.208Z,99.99
2022-10-31T04:28:22.238Z,99.99
2022-10-31T04:29:22.190Z,99.99
2022-10-31T04:30:22.192Z,99.99
2022-10-31T04:31:22.174Z,99.99
2022-10-31T04:32:22.170Z,99.99
2022-10-31T04:33:22.166Z,99.99
2022-10-31T04:34:22.137Z,99.99
2022-10-31T04:35:22.132Z,99.99
2022-10-31T04:36:22.119Z,99.99
2022-10-31T04:37:22.101Z,99.99
2022-10-31T04:38:22.104Z,99.99
2022-10-31T04:39:25.764Z,99.99
2022-10-31T04:40:22.090Z,99.99
2022-10-31T04:41:22.062Z,99.99
2022-10-31T04:42:22.049Z,99.99
2022-10-31T04:43:22.071Z,99.99
2022-10-31T04:44:22.061Z,99.99
2022-10-31T04:45:22.018Z,99.99
2022-10-31T04:46:22.019Z,99.99
2022-10-31T04:47:21.985Z,99.99
2022-10-31T04:48:21.991Z,99.99
2022-10-31T04:49:21.969Z,99.99
2022-10-31T04:50:21.969Z,99.99
2022-10-31T04:51:22.163Z,99.99
2022-10-31T04:52:21.969Z,99.99
2022-10-31T04:53:21.917Z,99.99
2022-10-31T04:54:21.927Z,99.99
2022-10-31T04:55:21.903Z,99.99
2022-10-31T04:56:21.923Z,99.99
2022-10-31T04:57:21.916Z,99.99
2022-10-31T04:58:21.873Z,99.99
2022-10-31T04:59:21.857Z,99.99
2022-10-31T05:00:21.850Z,99.99
2022-10-31T05:01:21.951Z,99.99
2022-10-31T05:02:21.896Z,99.99
2022-10-31T05:03:21.818Z,99.99
2022-10-31T05:04:21.839Z,99.99
2022-10-31T05:05:21.800Z,99.99
2022-10-31T05:06:21.770Z,99.99
2022-10-31T05:07:21.781Z,99.99
2022-10-31T05:08:21.767Z,99.99
2022-10-31T05:09:21.759Z,99.99
2022-10-31T05:10:21.740Z,99.99
2022-10-31T05:11:21.717Z,99.99
2022-10-31T05:12:21.711Z,99.99
2022-10-31T05:14:21.881Z,99.99
2022-10-31T05:15:21.691Z,99.99
2022-10-31T05:16:21.676Z,99.99
2022-10-31T05:17:21.669Z,99.99
2022-10-31T05:18:21.648Z,99.99
2022-10-31T05:19:21.641Z,99.99
2022-10-31T05:20:21.645Z,99.99
2022-10-31T05:21:21.617Z,99.99
2022-10-31T05:22:21.615Z,99.99
2022-10-31T05:23:21.637Z,99.99
2022-10-31T05:24:21.594Z,99.99
2022-10-31T05:25:21.618Z,99.99
2022-10-31T05:26:21.590Z,99.99
2022-10-31T05:27:21.563Z,99.99
2022-10-31T05:28:21.534Z,99.99
2022-10-31T05:29:21.614Z,99.99
2022-10-31T05:30:21.522Z,99.99
2022-10-31T05:31:21.775Z,99.99
2022-10-31T05:32:21.510Z,99.99
2022-10-31T05:33:21.494Z,99.99
2022-10-31T05:34:21.492Z,99.99
2022-10-31T05:35:21.473Z,99.99
2022-10-31T05:36:21.498Z,99.99
2022-10-31T05:37:21.440Z,99.99
2022-10-31T05:38:21.449Z,99.99
2022-10-31T05:39:21.430Z,99.99
2022-10-31T05:40:21.413Z,99.99
2022-10-31T05:41:21.414Z,99.99
2022-10-31T05:42:21.447Z,99.99
2022-10-31T05:43:21.396Z,99.99
2022-10-31T05:44:21.382Z,99.99
2022-10-31T05:45:21.358Z,99.99
2022-10-31T05:46:21.434Z,99.99
2022-10-31T05:47:21.326Z,99.99
2022-10-31T05:48:21.338Z,99.99
2022-10-31T05:49:21.312Z,99.99
2022-10-31T05:50:21.316Z,99.99
2022-10-31T05:51:21.290Z,99.99
2022-10-31T05:52:21.992Z,99.99
2022-10-31T05:53:21.277Z,99.99
2022-10-31T05:54:21.359Z,99.99
2022-10-31T05:55:21.249Z,99.99
2022-10-31T05:56:21.240Z,99.99
2022-10-31T05:57:21.227Z,99.99
2022-10-31T05:58:21.224Z,99.99
2022-10-31T05:59:21.208Z,99.99
2022-10-31T06:00:21.195Z,99.99
2022-10-31T06:01:21.224Z,99.99
2022-10-31T06:02:21.172Z,99.99
2022-10-31T06:03:21.154Z,99.99
2022-10-31T06:04:21.181Z,99.99
2022-10-31T06:05:21.151Z,99.99
2022-10-31T06:06:21.132Z,99.99
2022-10-31T06:07:21.118Z,99.99
2022-10-31T06:08:21.123Z,99.99
2022-10-31T06:09:21.121Z,99.99
2022-10-31T06:10:21.099Z,99.99
2022-10-31T06:11:21.080Z,99.99
2022-10-31T06:12:21.087Z,99.99
2022-10-31T06:13:21.052Z,99.99
2022-10-31T06:14:21.051Z,99.99
2022-10-31T06:15:24.216Z,99.99
2022-10-31T06:16:21.033Z,99.99
2022-10-31T06:17:21.014Z,99.99
2022-10-31T06:18:21.019Z,99.99
2022-10-31T06:19:20.996Z,99.99
2022-10-31T06:20:20.983Z,99.99
2022-10-31T06:21:20.975Z,99.99
2022-10-31T06:22:20.949Z,99.99
2022-10-31T06:23:20.952Z,99.99
2022-10-31T06:24:20.927Z,99.99
2022-10-31T06:25:21.033Z,99.99
2022-10-31T06:26:21.003Z,99.99
2022-10-31T06:27:20.899Z,99.99
2022-10-31T06:28:20.890Z,99.99
2022-10-31T06:29:20.888Z,99.99
2022-10-31T06:30:20.885Z,99.99
2022-10-31T06:31:20.860Z,99.99
2022-10-31T06:32:20.857Z,99.99
2022-10-31T06:33:20.846Z,99.99
2022-10-31T06:34:20.827Z,99.99
2022-10-31T06:35:20.899Z,99.99
2022-10-31T06:36:20.846Z,99.99
2022-10-31T06:37:20.801Z,99.99
2022-10-31T06:38:20.788Z,99.99
2022-10-31T06:39:20.791Z,99.99
2022-10-31T06:40:20.754Z,99.99
2022-10-31T06:41:20.752Z,99.99
2022-10-31T06:42:20.736Z,99.99
2022-10-31T06:43:20.742Z,99.99
2022-10-31T06:44:20.730Z,99.99
2022-10-31T06:45:20.831Z,99.99
2022-10-31T06:46:20.696Z,99.99
2022-10-31T06:47:20.684Z,99.99
2022-10-31T06:48:21.076Z,99.99
2022-10-31T06:49:20.658Z,99.99
2022-10-31T06:50:20.653Z,99.99
2022-10-31T06:51:20.632Z,99.99
2022-10-31T06:52:20.637Z,99.99
2022-10-31T06:53:20.610Z,99.99
2022-10-31T06:54:20.599Z,99.99
2022-10-31T06:55:20.600Z,99.99
2022-10-31T06:56:20.817Z,99.99
2022-10-31T06:57:20.583Z,99.99
2022-10-31T06:58:20.578Z,99.99
2022-10-31T06:59:20.552Z,99.99
2022-10-31T07:00:20.552Z,99.99
2022-10-31T07:01:20.596Z,99.99
2022-10-31T07:02:20.566Z,99.99
2022-10-31T07:03:20.509Z,99.99
2022-10-31T07:04:20.515Z,99.99
2022-10-31T07:05:20.496Z,99.99
2022-10-31T07:06:20.484Z,99.99
2022-10-31T07:07:20.470Z,99.99
2022-10-31T07:08:20.450Z,99.99
2022-10-31T07:09:20.446Z,99.99
2022-10-31T07:10:20.427Z,99.99
2022-10-31T07:11:20.443Z,99.99
2022-10-31T07:12:20.411Z,99.99
2022-10-31T07:13:20.401Z,99.99
2022-10-31T07:14:20.397Z,99.99
2022-10-31T07:15:20.394Z,99.99
2022-10-31T07:16:20.430Z,99.99
2022-10-31T07:17:20.360Z,99.99
2022-10-31T07:18:20.351Z,99.99
2022-10-31T07:19:20.337Z,99.99
2022-10-31T07:20:20.334Z,99.99
2022-10-31T07:21:20.327Z,99.99
2022-10-31T07:22:20.306Z,99.99
2022-10-31T07:23:20.287Z,99.99
2022-10-31T07:24:20.279Z,99.99
2022-10-31T07:25:20.280Z,99.99
2022-10-31T07:26:20.269Z,99.99
2022-10-31T07:27:20.342Z,99.99
2022-10-31T07:28:20.238Z,99.99
2022-10-31T07:29:20.267Z,99.99
2022-10-31T07:30:20.199Z,99.99
2022-10-31T07:31:20.211Z,99.99
2022-10-31T07:32:20.196Z,99.99
2022-10-31T07:33:20.177Z,99.99
2022-10-31T07:34:20.169Z,99.99
2022-10-31T07:35:20.184Z,99.99
2022-10-31T07:36:20.146Z,99.99
2022-10-31T07:37:20.131Z,99.99
2022-10-31T07:38:20.119Z,99.99
2022-10-31T07:39:20.181Z,99.99
2022-10-31T07:40:20.095Z,99.99
2022-10-31T07:41:20.087Z,99.99
2022-10-31T07:42:20.103Z,99.99
2022-10-31T07:43:20.078Z,99.99
2022-10-31T07:44:20.056Z,99.99
2022-10-31T07:45:20.055Z,99.99
2022-10-31T07:46:20.027Z,99.99
2022-10-31T07:47:20.029Z,99.99
2022-10-31T07:48:20.040Z,99.99
2022-10-31T07:49:20.023Z,99.99
2022-10-31T07:50:19.997Z,99.99
2022-10-31T07:51:19.987Z,99.99
2022-10-31T07:52:19.973Z,99.99
2022-10-31T07:53:19.990Z,99.99
2022-10-31T07:54:19.951Z,99.99
2022-10-31T07:55:20.014Z,99.99
2022-10-31T07:56:19.917Z,99.99
2022-10-31T07:57:24.152Z,99.99
2022-10-31T07:58:21.046Z,99.99
2022-10-31T07:59:19.891Z,99.99
2022-10-31T08:00:19.973Z,99.99
2022-10-31T08:01:19.924Z,99.99
2022-10-31T08:02:19.903Z,99.99
2022-10-31T08:03:19.894Z,99.99
2022-10-31T08:04:19.857Z,99.99
2022-10-31T08:05:19.875Z,99.99
2022-10-31T08:06:19.975Z,99.99
2022-10-31T08:07:19.867Z,99.99
2022-10-31T08:08:19.792Z,99.99
2022-10-31T08:09:19.803Z,99.99
2022-10-31T08:10:19.781Z,99.99
2022-10-31T08:11:19.770Z,99.99
2022-10-31T08:12:19.780Z,99.99
2022-10-31T08:13:19.753Z,99.99
2022-10-31T08:14:19.749Z,99.99
2022-10-31T08:15:19.743Z,99.99
2022-10-31T08:16:19.764Z,99.99
2022-10-31T08:17:19.717Z,99.99
2022-10-31T08:18:19.747Z,99.99
2022-10-31T08:19:19.678Z,99.99
2022-10-31T08:20:19.679Z,99.99
2022-10-31T08:21:19.652Z,99.99
2022-10-31T08:22:19.648Z,99.99
2022-10-31T08:23:19.749Z,99.99
2022-10-31T08:24:19.736Z,99.99
2022-10-31T08:25:19.644Z,99.99
2022-10-31T08:26:19.603Z,99.99
2022-10-31T08:27:19.652Z,99.99
2022-10-31T08:28:19.578Z,99.99
2022-10-31T08:29:19.605Z,99.99
2022-10-31T08:30:19.561Z,99.99
2022-10-31T08:31:19.576Z,99.99
2022-10-31T08:32:19.528Z,99.99
2022-10-31T08:33:19.546Z,99.99
2022-10-31T08:34:19.505Z,99.99
2022-10-31T08:35:19.553Z,99.99
2022-10-31T08:36:19.525Z,99.99
2022-10-31T08:37:19.910Z,99.99
2022-10-31T08:38:19.486Z,99.99
2022-10-31T08:39:19.521Z,99.99
2022-10-31T08:40:19.548Z,99.99
2022-10-31T08:41:19.463Z,99.99
2022-10-31T08:42:19.424Z,99.99
2022-10-31T08:43:19.448Z,99.99
2022-10-31T08:44:19.400Z,99.99
2022-10-31T08:45:19.424Z,99.99
2022-10-31T08:46:19.554Z,99.99
2022-10-31T08:47:19.376Z,99.99
2022-10-31T08:48:19.350Z,99.99
2022-10-31T08:49:19.422Z,99.99
2022-10-31T08:50:19.330Z,99.99
2022-10-31T08:51:19.345Z,99.99
2022-10-31T08:52:19.350Z,99.99
2022-10-31T08:53:19.313Z,99.99
2022-10-31T08:54:19.319Z,99.99
2022-10-31T08:55:19.308Z,99.99
2022-10-31T08:56:19.371Z,99.99
2022-10-31T08:57:19.276Z,99.99
2022-10-31T08:58:19.439Z,99.99
2022-10-31T08:59:19.266Z,99.99
2022-10-31T09:00:19.528Z,99.99
2022-10-31T09:01:19.487Z,99.99
2022-10-31T09:02:19.251Z,99.99
2022-10-31T09:03:19.207Z,99.99
2022-10-31T09:04:19.183Z,99.99
2022-10-31T09:05:19.169Z,99.99
2022-10-31T09:06:19.220Z,99.99
2022-10-31T09:07:21.258Z,99.99
2022-10-31T09:08:19.151Z,99.99
2022-10-31T09:09:19.124Z,99.99
2022-10-31T09:10:19.214Z,99.99
2022-10-31T09:11:19.106Z,99.99
2022-10-31T09:12:19.104Z,99.99
2022-10-31T09:13:19.325Z,99.99
2022-10-31T09:14:19.116Z,99.99
2022-10-31T09:15:19.065Z,99.22
2022-10-31T09:16:19.046Z,97.75
2022-10-31T09:17:19.046Z,96.18
2022-10-31T09:18:19.125Z,94.56
2022-10-31T09:19:19.022Z,92.79
2022-10-31T09:20:19.011Z,91.56
2022-10-31T09:21:19.019Z,90.92
2022-10-31T09:22:19.212Z,90.00
2022-10-31T09:23:18.989Z,90.36
2022-10-31T09:24:18.970Z,90.42
2022-10-31T09:25:19.193Z,89.98
2022-10-31T09:26:18.999Z,89.43
2022-10-31T09:27:18.949Z,88.42
2022-10-31T09:28:18.920Z,88.15
2022-10-31T09:29:18.905Z,87.99
2022-10-31T09:30:18.952Z,88.60
2022-10-31T09:31:19.869Z,89.04
2022-10-31T09:32:18.883Z,88.99
2022-10-31T09:33:18.864Z,89.50
2022-10-31T09:34:18.934Z,90.11
2022-10-31T09:35:21.694Z,90.25
2022-10-31T09:36:19.952Z,90.80
2022-10-31T09:37:18.855Z,91.20
2022-10-31T09:38:18.902Z,91.91
2022-10-31T09:39:18.809Z,92.26
2022-10-31T09:40:18.797Z,92.47
2022-10-31T09:41:18.825Z,92.67
2022-10-31T09:42:18.786Z,92.87
2022-10-31T09:43:18.760Z,93.18
2022-10-31T09:44:18.748Z,93.28
2022-10-31T09:45:18.788Z,93.38
2022-10-31T09:46:18.735Z,93.38
2022-10-31T09:47:18.725Z,93.68
2022-10-31T09:48:18.738Z,93.48
2022-10-31T09:49:18.795Z,93.79
2022-10-31T09:50:18.678Z,93.95
2022-10-31T09:51:18.665Z,93.54
2022-10-31T09:52:18.662Z,93.44
2022-10-31T09:53:18.647Z,93.33
2022-10-31T09:54:18.638Z,93.33
2022-10-31T09:55:18.640Z,93.03
2022-10-31T09:56:18.625Z,92.93
2022-10-31T09:57:18.600Z,92.83
2022-10-31T09:58:18.703Z,93.13
2022-10-31T09:59:18.584Z,92.83
2022-10-31T10:00:18.582Z,92.93
2022-10-31T10:01:18.933Z,93.13
2022-10-31T10:02:18.588Z,93.13
2022-10-31T10:03:18.544Z,92.89
2022-10-31T10:04:20.850Z,92.99
2022-10-31T10:05:18.516Z,92.89
2022-10-31T10:06:18.532Z,92.13
2022-10-31T10:07:18.497Z,91.42
2022-10-31T10:08:25.504Z,91.22
2022-10-31T10:10:21.272Z,91.58
2022-10-31T10:11:18.462Z,90.88
2022-10-31T10:12:18.457Z,90.53
2022-10-31T10:13:18.432Z,89.72
2022-10-31T10:14:18.461Z,89.92
2022-10-31T10:15:18.436Z,89.41
2022-10-31T10:16:18.412Z,89.31
2022-10-31T10:17:18.389Z,88.70
2022-10-31T10:18:18.380Z,89.31
2022-10-31T10:19:18.358Z,89.51
2022-10-31T10:20:20.645Z,89.57
2022-10-31T10:21:18.354Z,89.47
2022-10-31T10:22:18.325Z,89.26
2022-10-31T10:23:18.317Z,89.12
2022-10-31T10:24:18.297Z,88.21
2022-10-31T10:25:18.308Z,88.37
2022-10-31T10:26:18.357Z,87.77
2022-10-31T10:27:20.763Z,87.26
2022-10-31T10:28:19.271Z,86.76
2022-10-31T10:29:18.626Z,87.05
2022-10-31T10:30:18.239Z,87.26
2022-10-31T10:31:18.251Z,87.16
2022-10-31T10:32:18.256Z,87.66
2022-10-31T10:33:18.233Z,88.17
2022-10-31T10:34:18.207Z,87.97
2022-10-31T10:35:18.185Z,88.07
2022-10-31T10:36:18.169Z,87.87
2022-10-31T10:37:18.168Z,88.11
2022-10-31T10:38:18.158Z,88.31
2022-10-31T10:39:18.491Z,88.21
2022-10-31T10:40:18.155Z,88.21
2022-10-31T10:41:18.115Z,88.72
2022-10-31T10:42:18.106Z,88.82
2022-10-31T10:43:18.096Z,88.51
2022-10-31T10:44:18.080Z,88.92
2022-10-31T10:45:18.073Z,89.08
2022-10-31T10:46:18.068Z,88.98
2022-10-31T10:47:18.046Z,88.88
2022-10-31T10:48:18.057Z,88.64
2022-10-31T10:49:18.040Z,88.02
2022-10-31T10:50:18.047Z,87.93
2022-10-31T10:51:31.976Z,87.82
2022-10-31T10:52:39.730Z,88.02
2022-10-31T10:53:18.986Z,88.23
2022-10-31T10:54:17.994Z,87.99
2022-10-31T10:55:17.969Z,88.59
2022-10-31T10:56:17.962Z,88.70
2022-10-31T10:57:17.942Z,88.19
2022-10-31T10:58:17.933Z,87.99
2022-10-31T10:59:17.992Z,87.64
2022-10-31T11:00:17.952Z,86.83
2022-10-31T11:01:17.917Z,86.99
2022-10-31T11:02:17.887Z,86.90
2022-10-31T11:03:18.448Z,86.39
2022-10-31T11:04:17.880Z,85.99
2022-10-31T11:05:17.857Z,85.78
2022-10-31T11:06:17.869Z,85.68
2022-10-31T11:07:17.839Z,85.68
2022-10-31T11:08:17.825Z,85.58
2022-10-31T11:09:17.827Z,85.68
2022-10-31T11:10:17.822Z,85.88
2022-10-31T11:11:17.793Z,85.68
2022-10-31T11:12:17.778Z,85.84
2022-10-31T11:13:17.776Z,85.44
2022-10-31T11:14:17.769Z,85.64
2022-10-31T11:15:17.747Z,86.15
2022-10-31T11:16:17.774Z,86.41
2022-10-31T11:17:17.718Z,85.40
2022-10-31T11:18:17.730Z,84.69
2022-10-31T11:19:17.722Z,84.69
2022-10-31T11:20:19.079Z,84.89
2022-10-31T11:21:17.683Z,84.59
2022-10-31T11:22:17.676Z,84.85
2022-10-31T11:23:17.659Z,84.45
2022-10-31T11:24:17.657Z,84.45
2022-10-31T11:25:17.653Z,84.91
2022-10-31T11:26:17.634Z,84.01
2022-10-31T11:27:17.625Z,83.06
2022-10-31T11:28:17.602Z,82.96
2022-10-31T11:29:17.583Z,82.25
2022-10-31T11:30:17.674Z,82.42
2022-10-31T11:31:18.517Z,82.11
2022-10-31T11:32:17.570Z,81.27
2022-10-31T11:33:17.562Z,81.47
2022-10-31T11:34:17.583Z,81.23
2022-10-31T11:35:17.526Z,81.13
2022-10-31T11:36:17.531Z,80.99
2022-10-31T11:37:17.528Z,80.08
2022-10-31T11:38:17.494Z,79.48
2022-10-31T11:39:17.485Z,79.85
2022-10-31T11:40:17.484Z,79.54
2022-10-31T11:41:17.467Z,80.45
2022-10-31T11:42:17.457Z,79.71
2022-10-31T11:43:17.443Z,78.80
2022-10-31T11:44:17.448Z,78.60
2022-10-31T11:45:17.853Z,78.70
2022-10-31T11:46:17.407Z,78.60
2022-10-31T11:47:17.397Z,78.80
2022-10-31T11:48:17.396Z,78.20
2022-10-31T11:49:17.390Z,78.80
2022-10-31T11:50:17.360Z,78.90
2022-10-31T11:51:17.351Z,78.27
2022-10-31T11:52:17.353Z,77.46
2022-10-31T11:53:17.340Z,77.36
2022-10-31T11:54:17.319Z,78.16
2022-10-31T11:55:17.318Z,78.40
2022-10-31T11:56:17.303Z,78.40
2022-10-31T11:57:17.303Z,78.70
2022-10-31T11:58:17.269Z,78.30
2022-10-31T11:59:17.265Z,78.20
2022-10-31T12:00:17.429Z,78.40
2022-10-31T12:01:17.285Z,79.14
2022-10-31T12:02:17.856Z,78.94
2022-10-31T12:03:17.235Z,80.22
2022-10-31T12:04:17.210Z,80.73
2022-10-31T12:05:18.331Z,81.13
2022-10-31T12:06:17.204Z,81.63
2022-10-31T12:07:17.198Z,81.87
2022-10-31T12:08:17.271Z,81.77
2022-10-31T12:09:17.156Z,81.57
2022-10-31T12:10:17.162Z,81.67
2022-10-31T12:11:17.137Z,82.58
2022-10-31T12:12:17.125Z,82.71
2022-10-31T12:13:17.120Z,82.71
2022-10-31T12:14:17.108Z,82.82
2022-10-31T12:15:17.092Z,83.12
2022-10-31T12:16:17.560Z,83.22
2022-10-31T12:17:17.080Z,83.12
2022-10-31T12:18:17.091Z,83.02
2022-10-31T12:19:17.072Z,83.02
2022-10-31T12:20:17.039Z,82.78
2022-10-31T12:21:17.027Z,82.38
2022-10-31T12:22:17.203Z,82.68
2022-10-31T12:23:17.016Z,82.68
2022-10-31T12:24:16.996Z,82.88
2022-10-31T12:25:16.985Z,82.68
2022-10-31T12:26:16.970Z,82.68
2022-10-31T12:27:16.991Z,82.38
2022-10-31T12:28:17.489Z,82.38
2022-10-31T12:29:16.938Z,82.48
2022-10-31T12:30:16.924Z,81.63
2022-10-31T12:31:16.936Z,80.83
2022-10-31T12:32:16.912Z,80.63
2022-10-31T12:33:16.899Z,80.22
2022-10-31T12:34:17.091Z,80.08
2022-10-31T12:35:16.887Z,79.88
2022-10-31T12:36:17.149Z,79.58
2022-10-31T12:37:16.858Z,79.44
2022-10-31T12:38:16.853Z,78.94
2022-10-31T12:39:16.824Z,78.54
2022-10-31T12:40:16.835Z,78.14
2022-10-31T12:41:16.831Z,78.03
2022-10-31T12:42:16.814Z,78.54
2022-10-31T12:43:16.789Z,78.54
2022-10-31T12:44:16.786Z,78.14
2022-10-31T12:45:16.767Z,78.03
2022-10-31T12:46:16.784Z,78.23
2022-10-31T12:47:16.754Z,78.44
2022-10-31T12:48:16.723Z,78.50
2022-10-31T12:49:16.735Z,77.70
2022-10-31T12:50:16.721Z,77.66
2022-10-31T12:51:16.705Z,76.86
2022-10-31T12:52:16.745Z,76.72
2022-10-31T12:53:16.694Z,76.21
2022-10-31T12:54:16.677Z,75.92
2022-10-31T12:55:16.718Z,76.32
2022-10-31T12:56:16.654Z,76.32